createdAt,value
2017-04-28T00:00:01.049Z,57.45
2017-04-28T00:00:41.803Z,57.64
2017-04-28T00:01:22.534Z,57.15
2017-04-28T00:02:03.282Z,57.73
2017-04-28T00:02:44.025Z,57.35
2017-04-28T00:03:24.775Z,57.35
2017-04-28T00:04:05.529Z,57.83
2017-04-28T00:04:46.294Z,57.54
2017-04-28T00:05:27.004Z,57.54
2017-04-28T00:06:07.796Z,57.06
2017-04-28T00:06:48.671Z,57.45
2017-04-28T00:07:29.433Z,57.54
2017-04-28T00:08:10.186Z,57.64
2017-04-28T00:08:50.974Z,57.35
2017-04-28T00:09:31.761Z,57.15
2017-04-28T00:10:12.479Z,57.25
2017-04-28T00:10:53.254Z,56.87
2017-04-28T00:11:33.955Z,57.35
2017-04-28T00:12:14.756Z,57.54
2017-04-28T00:12:55.510Z,57.06
2017-04-28T00:13:36.262Z,57.06
2017-04-28T00:14:17.108Z,57.25
2017-04-28T00:14:57.881Z,56.87
2017-04-28T00:15:38.598Z,57.25
2017-04-28T00:16:19.355Z,56.87
2017-04-28T00:17:00.055Z,56.87
2017-04-28T00:17:40.807Z,57.15
2017-04-28T00:18:21.616Z,56.87
2017-04-28T00:19:02.325Z,56.87
2017-04-28T00:19:43.091Z,57.15
2017-04-28T00:20:23.865Z,57.06
2017-04-28T00:21:04.623Z,57.45
2017-04-28T00:21:45.360Z,57.15
2017-04-28T00:22:26.127Z,57.06
2017-04-28T00:23:06.789Z,57.06
2017-04-28T00:23:47.600Z,57.06
2017-04-28T00:24:28.397Z,57.15
2017-04-28T00:25:09.151Z,57.15
2017-04-28T00:25:49.922Z,57.15
2017-04-28T00:26:30.694Z,56.96
2017-04-28T00:27:11.494Z,57.15
2017-04-28T00:27:52.235Z,56.96
2017-04-28T00:28:32.884Z,57.06
2017-04-28T00:29:13.585Z,57.06
2017-04-28T00:29:54.351Z,57.06
2017-04-28T00:30:35.093Z,57.06
2017-04-28T00:31:15.901Z,57.06
2017-04-28T00:31:56.645Z,57.06
2017-04-28T00:32:37.429Z,56.87
2017-04-28T00:33:18.236Z,56.87
2017-04-28T00:33:59.030Z,56.96
2017-04-28T00:34:39.768Z,56.96
2017-04-28T00:35:20.473Z,56.87
2017-04-28T00:36:01.225Z,57.15
2017-04-28T00:36:41.967Z,56.96
2017-04-28T00:37:22.690Z,56.96
2017-04-28T00:38:03.451Z,56.96
2017-04-28T00:38:44.145Z,57.15
2017-04-28T00:39:24.854Z,57.15
2017-04-28T00:40:05.638Z,57.15
2017-04-28T00:40:46.397Z,56.96
2017-04-28T00:41:27.177Z,57.15
2017-04-28T00:42:07.962Z,57.15
2017-04-28T00:42:48.721Z,56.96
2017-04-28T00:43:29.518Z,57.25
2017-04-28T00:44:10.222Z,57.15
2017-04-28T00:44:51.029Z,57.15
2017-04-28T00:45:31.905Z,57.25
2017-04-28T00:46:12.664Z,57.35
2017-04-28T00:46:53.432Z,57.25
2017-04-28T00:47:34.242Z,56.67
2017-04-28T00:48:15.008Z,57.35
2017-04-28T00:48:55.733Z,56.58
2017-04-28T00:49:36.478Z,56.96
2017-04-28T00:50:17.151Z,56.77
2017-04-28T00:50:57.919Z,57.06
2017-04-28T00:51:38.653Z,57.35
2017-04-28T00:52:19.450Z,57.15
2017-04-28T00:53:00.282Z,56.87
2017-04-28T00:53:41.010Z,56.77
2017-04-28T00:54:21.740Z,56.67
2017-04-28T00:55:02.470Z,57.06
2017-04-28T00:55:43.329Z,56.77
2017-04-28T00:56:24.109Z,57.25
2017-04-28T00:57:04.860Z,57.35
2017-04-28T00:57:45.680Z,56.58
2017-04-28T00:58:26.387Z,57.15
2017-04-28T00:59:07.126Z,57.15
2017-04-28T00:59:47.851Z,57.15
2017-04-28T01:00:28.597Z,57.25
2017-04-28T01:01:09.399Z,56.58
2017-04-28T01:01:50.219Z,56.77
2017-04-28T01:02:31.010Z,56.77
2017-04-28T01:03:11.786Z,56.77
2017-04-28T01:03:52.508Z,56.77
2017-04-28T01:04:33.290Z,57.06
2017-04-28T01:05:14.143Z,56.87
2017-04-28T01:05:54.829Z,56.87
2017-04-28T01:06:35.638Z,56.77
2017-04-28T01:07:16.385Z,56.77
2017-04-28T01:07:57.205Z,57.25
2017-04-28T01:08:37.946Z,56.67
2017-04-28T01:09:18.722Z,56.87
2017-04-28T01:09:59.437Z,56.67
2017-04-28T01:10:40.234Z,56.58
2017-04-28T01:11:21.052Z,56.48
2017-04-28T01:12:01.729Z,56.96
2017-04-28T01:12:42.459Z,56.77
2017-04-28T01:13:23.160Z,56.67
2017-04-28T01:14:03.887Z,56.58
2017-04-28T01:14:44.670Z,56.67
2017-04-28T01:15:25.370Z,56.67
2017-04-28T01:16:06.200Z,56.58
2017-04-28T01:16:46.984Z,56.77
2017-04-28T01:17:27.725Z,56.38
2017-04-28T01:18:08.439Z,56.96
2017-04-28T01:18:49.191Z,56.77
2017-04-28T01:19:30.009Z,56.58
2017-04-28T01:20:10.758Z,56.67
2017-04-28T01:20:51.507Z,56.87
2017-04-28T01:21:32.287Z,56.77
2017-04-28T01:22:13.062Z,56.96
2017-04-28T01:22:53.827Z,56.48
2017-04-28T01:23:34.551Z,56.77
2017-04-28T01:24:15.319Z,56.48
2017-04-28T01:24:56.102Z,56.48
2017-04-28T01:25:36.891Z,56.48
2017-04-28T01:26:17.646Z,56.67
2017-04-28T01:26:58.385Z,56.77
2017-04-28T01:27:39.156Z,56.48
2017-04-28T01:28:19.891Z,56.96
2017-04-28T01:29:00.710Z,56.58
2017-04-28T01:29:41.398Z,56.58
2017-04-28T01:30:22.178Z,56.67
2017-04-28T01:31:02.937Z,56.58
2017-04-28T01:31:43.675Z,56.29
2017-04-28T01:32:24.449Z,56.77
2017-04-28T01:33:05.200Z,56.58
2017-04-28T01:33:46.017Z,56.58
2017-04-28T01:34:26.746Z,56.67
2017-04-28T01:35:07.551Z,56.67
2017-04-28T01:35:48.415Z,56.58
2017-04-28T01:36:29.171Z,56.58
2017-04-28T01:37:09.887Z,56.67
2017-04-28T01:37:50.713Z,55.9
2017-04-28T01:38:31.484Z,56.38
2017-04-28T01:39:12.218Z,56.77
2017-04-28T01:39:53.005Z,56.77
2017-04-28T01:40:33.778Z,56.38
2017-04-28T01:41:14.635Z,56.58
2017-04-28T01:41:55.355Z,56
2017-04-28T01:42:42.966Z,56.38
2017-04-28T01:43:23.679Z,56.58
2017-04-28T01:44:04.432Z,56.67
2017-04-28T01:44:45.167Z,56.67
2017-04-28T01:45:25.959Z,56.38
2017-04-28T01:46:06.701Z,56.87
2017-04-28T01:46:47.443Z,56.58
2017-04-28T01:47:28.171Z,56.58
2017-04-28T01:48:09.016Z,56.67
2017-04-28T01:48:49.802Z,56
2017-04-28T01:49:30.566Z,56.58
2017-04-28T01:50:11.369Z,55.9
2017-04-28T01:50:52.112Z,56.67
2017-04-28T01:51:32.875Z,56.29
2017-04-28T01:52:13.548Z,56
2017-04-28T01:52:54.294Z,56.29
2017-04-28T01:53:35.103Z,56.38
2017-04-28T01:54:15.834Z,56.1
2017-04-28T01:54:56.625Z,56.2
2017-04-28T01:55:37.424Z,56.2
2017-04-28T01:56:18.261Z,56.29
2017-04-28T01:56:58.998Z,56.2
2017-04-28T01:57:39.798Z,56.2
2017-04-28T01:58:20.553Z,56.2
2017-04-28T01:59:01.334Z,56.48
2017-04-28T01:59:42.048Z,56
2017-04-28T02:00:22.835Z,56.58
2017-04-28T02:01:03.549Z,56.58
2017-04-28T02:01:44.311Z,56.29
2017-04-28T02:02:25.139Z,56.2
2017-04-28T02:03:06.017Z,56.48
2017-04-28T02:03:46.769Z,56.38
2017-04-28T02:04:27.492Z,56.48
2017-04-28T02:05:08.262Z,56.38
2017-04-28T02:05:49.084Z,56.38
2017-04-28T02:06:29.809Z,56.48
2017-04-28T02:07:10.553Z,56.48
2017-04-28T02:07:51.247Z,56.48
2017-04-28T02:08:32.074Z,56.29
2017-04-28T02:09:12.830Z,56.29
2017-04-28T02:09:53.577Z,56.29
2017-04-28T02:10:34.288Z,56.48
2017-04-28T02:11:15.076Z,56.26
2017-04-28T02:11:55.803Z,56.1
2017-04-28T02:12:36.559Z,56.29
2017-04-28T02:13:17.370Z,56
2017-04-28T02:13:58.170Z,56.38
2017-04-28T02:14:38.970Z,56.48
2017-04-28T02:15:19.732Z,55.81
2017-04-28T02:16:00.522Z,56.16
2017-04-28T02:16:41.283Z,56.29
2017-04-28T02:17:21.966Z,55.9
2017-04-28T02:18:02.675Z,56.29
2017-04-28T02:18:43.420Z,55.81
2017-04-28T02:19:24.193Z,55.9
2017-04-28T02:20:04.894Z,55.9
2017-04-28T02:20:45.633Z,56.26
2017-04-28T02:21:26.340Z,56.38
2017-04-28T02:22:07.138Z,55.81
2017-04-28T02:22:47.931Z,55.81
2017-04-28T02:23:28.613Z,55.9
2017-04-28T02:24:09.361Z,55.81
2017-04-28T02:24:50.068Z,56.45
2017-04-28T02:25:30.845Z,55.9
2017-04-28T02:26:11.666Z,55.81
2017-04-28T02:26:52.356Z,55.49
2017-04-28T02:27:33.133Z,56
2017-04-28T02:28:13.852Z,56
2017-04-28T02:28:54.643Z,56
2017-04-28T02:29:35.375Z,56.29
2017-04-28T02:30:16.282Z,55.81
2017-04-28T02:30:57.058Z,55.9
2017-04-28T02:31:37.827Z,55.81
2017-04-28T02:32:18.611Z,56
2017-04-28T02:32:59.320Z,56.29
2017-04-28T02:33:40.104Z,55.78
2017-04-28T02:34:20.847Z,56.1
2017-04-28T02:35:01.584Z,56.1
2017-04-28T02:35:42.322Z,55.98
2017-04-28T02:36:23.115Z,56.07
2017-04-28T02:37:03.962Z,55.81
2017-04-28T02:37:44.694Z,55.81
2017-04-28T02:38:25.507Z,55.9
2017-04-28T02:39:06.157Z,55.9
2017-04-28T02:39:46.897Z,55.78
2017-04-28T02:40:27.642Z,55.62
2017-04-28T02:41:08.422Z,56.29
2017-04-28T02:41:49.173Z,56.58
2017-04-28T02:42:29.914Z,55.78
2017-04-28T02:44:20.003Z,55.49
2017-04-28T02:45:00.801Z,55.78
2017-04-28T02:45:41.583Z,55.81
2017-04-28T02:46:22.273Z,55.68
2017-04-28T02:47:03.072Z,55.68
2017-04-28T02:47:43.815Z,55.9
2017-04-28T02:48:24.714Z,56
2017-04-28T02:49:05.511Z,55.78
2017-04-28T02:49:46.223Z,55.71
2017-04-28T02:50:27.005Z,55.98
2017-04-28T02:51:07.734Z,55.9
2017-04-28T02:51:48.474Z,55.9
2017-04-28T02:52:29.206Z,55.52
2017-04-28T02:53:09.955Z,56
2017-04-28T02:53:50.682Z,55.9
2017-04-28T02:54:31.488Z,55.98
2017-04-28T02:55:12.224Z,55.98
2017-04-28T02:55:52.900Z,55.71
2017-04-28T02:56:33.676Z,55.62
2017-04-28T02:57:14.423Z,55.88
2017-04-28T02:57:55.192Z,55.78
2017-04-28T02:58:35.924Z,55.9
2017-04-28T02:59:16.703Z,55.78
2017-04-28T02:59:57.449Z,55.88
2017-04-28T03:00:38.230Z,55.81
2017-04-28T03:01:19.026Z,55.59
2017-04-28T03:01:59.733Z,55.68
2017-04-28T03:02:40.458Z,55.81
2017-04-28T03:03:21.236Z,55.62
2017-04-28T03:04:02.050Z,55.68
2017-04-28T03:04:42.768Z,56.16
2017-04-28T03:05:23.520Z,55.78
2017-04-28T03:06:04.254Z,55.68
2017-04-28T03:06:45.029Z,55.59
2017-04-28T03:07:25.804Z,55.81
2017-04-28T03:08:06.519Z,55.88
2017-04-28T03:08:47.245Z,55.98
2017-04-28T03:09:27.998Z,55.81
2017-04-28T03:10:08.822Z,55.59
2017-04-28T03:10:49.609Z,55.98
2017-04-28T03:11:30.370Z,55.98
2017-04-28T03:12:11.147Z,55.78
2017-04-28T03:12:51.885Z,55.59
2017-04-28T03:13:47.340Z,55.59
2017-04-28T03:14:28.135Z,55.59
2017-04-28T03:15:08.879Z,55.78
2017-04-28T03:15:49.628Z,55.98
2017-04-28T03:16:30.359Z,56.2
2017-04-28T03:17:11.099Z,56.16
2017-04-28T03:17:51.867Z,55.98
2017-04-28T03:18:32.626Z,55.59
2017-04-28T03:19:13.432Z,56.1
2017-04-28T03:19:54.221Z,55.43
2017-04-28T03:20:34.978Z,55.4
2017-04-28T03:21:15.663Z,55.68
2017-04-28T03:21:56.455Z,55.3
2017-04-28T03:22:37.229Z,55.52
2017-04-28T03:23:17.991Z,55.11
2017-04-28T03:23:58.735Z,55.68
2017-04-28T03:24:39.457Z,55.68
2017-04-28T03:25:20.278Z,55.11
2017-04-28T03:26:01.026Z,55.59
2017-04-28T03:26:41.789Z,55.3
2017-04-28T03:27:22.600Z,55.68
2017-04-28T03:28:03.322Z,55.59
2017-04-28T03:28:44.094Z,55.49
2017-04-28T03:29:24.921Z,55.68
2017-04-28T03:30:05.629Z,55.4
2017-04-28T03:30:46.329Z,55.49
2017-04-28T03:31:27.053Z,55.78
2017-04-28T03:32:07.855Z,55.78
2017-04-28T03:32:48.627Z,55.2
2017-04-28T03:33:29.389Z,55.3
2017-04-28T03:34:10.173Z,55.88
2017-04-28T03:34:50.896Z,55.78
2017-04-28T03:35:31.626Z,55.3
2017-04-28T03:36:12.366Z,55.78
2017-04-28T03:36:53.100Z,55.4
2017-04-28T03:37:33.841Z,55.2
2017-04-28T03:38:14.569Z,55.78
2017-04-28T03:38:55.282Z,55.78
2017-04-28T03:39:36.060Z,55.2
2017-04-28T03:40:16.861Z,55.33
2017-04-28T03:40:57.715Z,55.88
2017-04-28T03:41:38.476Z,55.4
2017-04-28T03:42:19.201Z,55.2
2017-04-28T03:43:00.063Z,55.68
2017-04-28T03:43:40.815Z,55.2
2017-04-28T03:44:21.542Z,55.3
2017-04-28T03:45:02.308Z,55.59
2017-04-28T03:45:43.052Z,55.2
2017-04-28T03:46:23.845Z,55.3
2017-04-28T03:47:04.579Z,55.4
2017-04-28T03:47:45.372Z,55.2
2017-04-28T03:48:26.167Z,55.2
2017-04-28T03:49:06.831Z,55.3
2017-04-28T03:49:47.564Z,55.01
2017-04-28T03:50:28.304Z,55.01
2017-04-28T03:51:09.019Z,55.4
2017-04-28T03:51:49.744Z,55.4
2017-04-28T03:52:30.478Z,55.3
2017-04-28T03:53:11.271Z,55.3
2017-04-28T03:53:52.028Z,55.4
2017-04-28T03:54:32.859Z,55.2
2017-04-28T03:55:13.649Z,55.4
2017-04-28T03:55:54.497Z,55.2
2017-04-28T03:56:35.318Z,55.4
2017-04-28T03:57:16.094Z,55.2
2017-04-28T03:57:56.877Z,55.3
2017-04-28T03:58:37.631Z,55.01
2017-04-28T03:59:18.438Z,55.2
2017-04-28T03:59:59.222Z,55.49
2017-04-28T04:00:39.873Z,55.78
2017-04-28T04:01:20.650Z,55.49
2017-04-28T04:02:01.503Z,55.3
2017-04-28T04:02:42.232Z,55.3
2017-04-28T04:03:22.892Z,55.4
2017-04-28T04:04:03.645Z,55.3
2017-04-28T04:04:44.431Z,55.3
2017-04-28T04:05:25.174Z,55.2
2017-04-28T04:06:05.948Z,55.68
2017-04-28T04:06:46.689Z,55.78
2017-04-28T04:07:27.421Z,55.49
2017-04-28T04:08:08.140Z,55.3
2017-04-28T04:08:48.987Z,55.3
2017-04-28T04:09:29.765Z,55.4
2017-04-28T04:10:10.581Z,55.2
2017-04-28T04:10:51.265Z,55.88
2017-04-28T04:11:32.062Z,55.3
2017-04-28T04:12:12.925Z,55.68
2017-04-28T04:12:53.673Z,55.68
2017-04-28T04:13:37.243Z,55.68
2017-04-28T04:14:18.009Z,55.2
2017-04-28T04:14:58.812Z,55.4
2017-04-28T04:15:39.535Z,55.68
2017-04-28T04:16:20.339Z,55.4
2017-04-28T04:17:01.114Z,55.49
2017-04-28T04:17:41.923Z,55.2
2017-04-28T04:18:22.661Z,55.3
2017-04-28T04:19:03.422Z,55.4
2017-04-28T04:19:44.146Z,55.59
2017-04-28T04:20:24.918Z,55.4
2017-04-28T04:21:05.590Z,55.4
2017-04-28T04:21:46.402Z,55.3
2017-04-28T04:22:27.182Z,55.11
2017-04-28T04:23:07.899Z,55.49
2017-04-28T04:23:48.680Z,55.11
2017-04-28T04:24:29.447Z,55.3
2017-04-28T04:25:10.199Z,55.01
2017-04-28T04:25:50.954Z,54.91
2017-04-28T04:26:31.721Z,55.11
2017-04-28T04:27:12.427Z,54.91
2017-04-28T04:27:53.205Z,55.2
2017-04-28T04:28:34.055Z,55.2
2017-04-28T04:29:14.791Z,55.49
2017-04-28T04:29:55.544Z,55.4
2017-04-28T04:30:36.335Z,55.3
2017-04-28T04:31:17.070Z,55.2
2017-04-28T04:31:57.817Z,54.91
2017-04-28T04:32:38.531Z,54.91
2017-04-28T04:33:19.325Z,55.3
2017-04-28T04:34:00.097Z,54.91
2017-04-28T04:34:40.771Z,55.01
2017-04-28T04:35:21.558Z,55.2
2017-04-28T04:36:02.329Z,55.11
2017-04-28T04:36:43.079Z,55.01
2017-04-28T04:37:23.833Z,54.91
2017-04-28T04:38:04.617Z,54.82
2017-04-28T04:38:45.331Z,54.82
2017-04-28T04:39:26.124Z,55.11
2017-04-28T04:40:06.798Z,55.01
2017-04-28T04:40:47.574Z,54.82
2017-04-28T04:41:28.249Z,54.43
2017-04-28T04:42:08.978Z,54.82
2017-04-28T04:42:49.723Z,54.63
2017-04-28T04:43:30.507Z,54.63
2017-04-28T04:44:11.318Z,54.91
2017-04-28T04:44:52.123Z,54.82
2017-04-28T04:45:32.904Z,54.63
2017-04-28T04:46:13.563Z,54.82
2017-04-28T04:46:54.373Z,54.63
2017-04-28T04:47:35.101Z,54.91
2017-04-28T04:48:15.899Z,54.91
2017-04-28T04:48:56.689Z,54.43
2017-04-28T04:49:37.435Z,54.43
2017-04-28T04:50:18.244Z,54.82
2017-04-28T04:50:58.974Z,54.82
2017-04-28T04:51:39.750Z,54.53
2017-04-28T04:52:20.559Z,54.72
2017-04-28T04:53:01.290Z,54.53
2017-04-28T04:53:42.041Z,54.43
2017-04-28T04:54:22.813Z,54.91
2017-04-28T04:55:03.506Z,54.82
2017-04-28T04:55:44.295Z,54.72
2017-04-28T04:56:25.085Z,54.53
2017-04-28T04:57:05.858Z,54.72
2017-04-28T04:57:46.598Z,54.72
2017-04-28T04:58:27.334Z,54.82
2017-04-28T04:59:08.119Z,54.91
2017-04-28T04:59:48.846Z,54.82
2017-04-28T05:00:29.686Z,54.43
2017-04-28T05:01:10.489Z,54.53
2017-04-28T05:01:51.274Z,54.72
2017-04-28T05:02:32.025Z,55.01
2017-04-28T05:03:12.804Z,55.01
2017-04-28T05:03:53.565Z,54.82
2017-04-28T05:04:34.382Z,54.82
2017-04-28T05:05:15.178Z,54.91
2017-04-28T05:05:55.912Z,54.82
2017-04-28T05:06:36.617Z,54.91
2017-04-28T05:07:17.401Z,54.91
2017-04-28T05:07:58.148Z,55.01
2017-04-28T05:08:38.995Z,55.01
2017-04-28T05:09:19.742Z,55.01
2017-04-28T05:10:00.456Z,55.01
2017-04-28T05:10:41.129Z,55.01
2017-04-28T05:11:21.876Z,54.72
2017-04-28T05:12:02.727Z,55.01
2017-04-28T05:12:43.413Z,54.53
2017-04-28T05:13:24.114Z,55.01
2017-04-28T05:14:19.754Z,54.72
2017-04-28T05:15:00.403Z,54.91
2017-04-28T05:15:41.186Z,54.53
2017-04-28T05:16:22.006Z,54.82
2017-04-28T05:17:02.790Z,54.82
2017-04-28T05:17:43.523Z,54.91
2017-04-28T05:18:24.331Z,54.63
2017-04-28T05:19:05.077Z,54.53
2017-04-28T05:19:45.793Z,54.53
2017-04-28T05:20:26.518Z,54.43
2017-04-28T05:21:07.349Z,54.63
2017-04-28T05:21:48.134Z,54.43
2017-04-28T05:22:28.838Z,54.72
2017-04-28T05:23:09.614Z,54.63
2017-04-28T05:23:50.513Z,54.63
2017-04-28T05:24:31.256Z,54.53
2017-04-28T05:25:12.032Z,54.91
2017-04-28T05:25:52.817Z,54.91
2017-04-28T05:26:33.629Z,54.82
2017-04-28T05:27:14.400Z,54.63
2017-04-28T05:27:55.167Z,54.72
2017-04-28T05:28:35.929Z,54.43
2017-04-28T05:29:16.588Z,54.72
2017-04-28T05:29:57.280Z,54.91
2017-04-28T05:30:38.044Z,54.82
2017-04-28T05:31:18.905Z,54.72
2017-04-28T05:31:59.726Z,54.82
2017-04-28T05:32:40.472Z,54.72
2017-04-28T05:33:21.173Z,54.72
2017-04-28T05:34:01.864Z,54.82
2017-04-28T05:34:42.664Z,55.01
2017-04-28T05:35:23.427Z,54.91
2017-04-28T05:36:04.190Z,54.82
2017-04-28T05:36:44.958Z,54.53
2017-04-28T05:37:25.711Z,54.72
2017-04-28T05:38:06.491Z,54.63
2017-04-28T05:38:47.288Z,54.82
2017-04-28T05:39:27.999Z,55.01
2017-04-28T05:40:08.783Z,54.63
2017-04-28T05:40:49.591Z,54.72
2017-04-28T05:41:30.446Z,54.24
2017-04-28T05:42:11.153Z,54.63
2017-04-28T05:42:51.868Z,54.53
2017-04-28T05:43:32.662Z,54.72
2017-04-28T05:44:13.460Z,54.82
2017-04-28T05:44:54.171Z,54.72
2017-04-28T05:45:34.991Z,54.63
2017-04-28T05:46:15.812Z,54.53
2017-04-28T05:46:56.578Z,54.53
2017-04-28T05:47:37.305Z,54.82
2017-04-28T05:48:17.977Z,54.63
2017-04-28T05:48:58.761Z,54.53
2017-04-28T05:49:39.522Z,54.82
2017-04-28T05:50:20.308Z,54.53
2017-04-28T05:51:01.019Z,54.63
2017-04-28T05:51:41.836Z,54.82
2017-04-28T05:52:22.554Z,54.72
2017-04-28T05:53:03.355Z,54.72
2017-04-28T05:53:44.161Z,54.72
2017-04-28T05:55:59.705Z,54.72
2017-04-28T05:56:40.539Z,54.91
2017-04-28T05:57:21.351Z,54.82
2017-04-28T05:58:02.133Z,54.91
2017-04-28T05:58:42.931Z,54.53
2017-04-28T05:59:23.718Z,54.82
2017-04-28T06:00:06.239Z,54.53
2017-04-28T06:00:47.017Z,54.14
2017-04-28T06:01:27.780Z,54.34
2017-04-28T06:02:08.624Z,54.14
2017-04-28T06:02:49.421Z,54.24
2017-04-28T06:03:30.282Z,54.34
2017-04-28T06:04:11.099Z,53.86
2017-04-28T06:04:51.913Z,54.14
2017-04-28T06:05:32.637Z,54.24
2017-04-28T06:06:13.427Z,54.24
2017-04-28T06:06:54.163Z,54.24
2017-04-28T06:07:34.969Z,54.14
2017-04-28T06:08:15.674Z,54.24
2017-04-28T06:08:56.468Z,53.76
2017-04-28T06:09:37.267Z,53.86
2017-04-28T06:10:18.062Z,54.14
2017-04-28T06:10:58.740Z,54.14
2017-04-28T06:11:39.522Z,54.14
2017-04-28T06:12:20.326Z,54.05
2017-04-28T06:13:01.026Z,54.14
2017-04-28T06:13:41.868Z,53.76
2017-04-28T06:14:22.552Z,53.96
2017-04-28T06:15:03.410Z,54.05
2017-04-28T06:15:44.172Z,53.76
2017-04-28T06:16:24.875Z,53.76
2017-04-28T06:17:05.643Z,53.86
2017-04-28T06:17:46.430Z,53.76
2017-04-28T06:18:27.204Z,54.05
2017-04-28T06:19:08.468Z,53.66
2017-04-28T06:19:49.192Z,54.24
2017-04-28T06:20:29.988Z,53.86
2017-04-28T06:21:10.752Z,53.76
2017-04-28T06:21:51.543Z,53.66
2017-04-28T06:22:32.283Z,53.66
2017-04-28T06:23:13.078Z,53.66
2017-04-28T06:23:54.035Z,53.66
2017-04-28T06:24:34.808Z,53.66
2017-04-28T06:25:18.239Z,53.66
2017-04-28T06:25:58.995Z,53.66
2017-04-28T06:26:39.793Z,53.76
2017-04-28T06:27:20.580Z,53.76
2017-04-28T06:28:01.308Z,53.66
2017-04-28T06:28:42.014Z,53.76
2017-04-28T06:29:22.736Z,53.96
2017-04-28T06:30:03.542Z,53.38
2017-04-28T06:30:44.316Z,53.59
2017-04-28T06:31:25.048Z,53.57
2017-04-28T06:32:05.818Z,53.59
2017-04-28T06:32:46.585Z,53.4
2017-04-28T06:33:27.317Z,53.5
2017-04-28T06:34:08.109Z,52.92
2017-04-28T06:34:48.893Z,52.83
2017-04-28T06:35:29.606Z,52.73
2017-04-28T06:36:10.346Z,53.31
2017-04-28T06:36:51.133Z,52.44
2017-04-28T06:37:32.002Z,52.44
2017-04-28T06:38:12.816Z,51.76
2017-04-28T06:38:53.627Z,51.76
2017-04-28T06:39:34.433Z,52.06
2017-04-28T06:40:15.228Z,51.79
2017-04-28T06:40:55.968Z,51.86
2017-04-28T06:41:36.757Z,52.08
2017-04-28T06:42:17.588Z,51.79
2017-04-28T06:42:58.406Z,51.98
2017-04-28T06:43:39.169Z,51.5
2017-04-28T06:44:19.893Z,51.98
2017-04-28T06:45:00.657Z,51.12
2017-04-28T06:45:41.447Z,51.12
2017-04-28T06:46:22.147Z,51.02
2017-04-28T06:47:02.918Z,51.21
2017-04-28T06:47:43.628Z,51.12
2017-04-28T06:48:24.382Z,51.12
2017-04-28T06:49:05.119Z,50.73
2017-04-28T06:49:45.889Z,51.12
2017-04-28T06:50:26.644Z,51.79
2017-04-28T06:51:07.447Z,50.93
2017-04-28T06:51:48.199Z,51.21
2017-04-28T06:52:29.058Z,51.02
2017-04-28T06:53:09.833Z,50.93
2017-04-28T06:53:50.610Z,51.21
2017-04-28T06:54:31.376Z,50.83
2017-04-28T06:56:31.680Z,50.83
2017-04-28T06:57:12.402Z,50.83
2017-04-28T06:57:53.210Z,51.02
2017-04-28T06:58:33.950Z,50.73
2017-04-28T06:59:14.741Z,50.73
2017-04-28T06:59:55.453Z,50.73
2017-04-28T07:00:36.160Z,50.25
2017-04-28T07:01:16.864Z,50.54
2017-04-28T07:01:57.662Z,50.35
2017-04-28T07:02:38.431Z,49.77
2017-04-28T07:03:19.222Z,49.1
2017-04-28T07:03:59.989Z,49.48
2017-04-28T07:04:40.706Z,48.71
2017-04-28T07:05:21.412Z,48.44
2017-04-28T07:06:02.174Z,48.43
2017-04-28T07:06:42.861Z,48.61
2017-04-28T07:07:23.654Z,48.71
2017-04-28T07:08:04.553Z,48.35
2017-04-28T07:08:45.373Z,48.06
2017-04-28T07:09:26.104Z,48.06
2017-04-28T07:10:06.880Z,48.25
2017-04-28T07:10:47.681Z,48.25
2017-04-28T07:11:28.424Z,48.16
2017-04-28T07:12:09.216Z,48.06
2017-04-28T07:12:49.909Z,48.16
2017-04-28T07:13:30.741Z,47.99
2017-04-28T07:14:11.518Z,47.6
2017-04-28T07:14:52.315Z,47.51
2017-04-28T07:15:33.089Z,47.89
2017-04-28T07:16:13.918Z,47.6
2017-04-28T07:16:54.781Z,47.8
2017-04-28T07:17:35.499Z,47.8
2017-04-28T07:18:16.247Z,47.12
2017-04-28T07:18:56.988Z,47.7
2017-04-28T07:19:37.830Z,47.7
2017-04-28T07:20:25.447Z,47.7
2017-04-28T07:21:06.137Z,47.8
2017-04-28T07:21:46.848Z,47.7
2017-04-28T07:22:27.559Z,47.89
2017-04-28T07:23:08.253Z,47.41
2017-04-28T07:23:48.993Z,47.6
2017-04-28T07:24:29.718Z,47.7
2017-04-28T07:25:10.489Z,47.31
2017-04-28T07:25:51.285Z,47.22
2017-04-28T07:26:32.068Z,47.34
2017-04-28T07:27:12.795Z,47.34
2017-04-28T07:27:53.551Z,47.34
2017-04-28T07:28:34.344Z,47.53
2017-04-28T07:29:15.070Z,47.63
2017-04-28T07:29:55.774Z,47.34
2017-04-28T07:30:36.550Z,47.63
2017-04-28T07:31:17.322Z,47.44
2017-04-28T07:31:58.079Z,47.44
2017-04-28T07:32:38.817Z,47.63
2017-04-28T07:33:19.608Z,47.63
2017-04-28T07:34:00.385Z,47.44
2017-04-28T07:34:41.117Z,47.44
2017-04-28T07:35:21.975Z,47.53
2017-04-28T07:36:02.688Z,47.53
2017-04-28T07:36:43.506Z,47.14
2017-04-28T07:37:24.292Z,47.14
2017-04-28T07:38:04.990Z,47.27
2017-04-28T07:38:45.813Z,46.78
2017-04-28T07:39:26.604Z,46.49
2017-04-28T07:40:07.286Z,46.2
2017-04-28T07:40:48.035Z,46.11
2017-04-28T07:41:28.793Z,46.01
2017-04-28T07:42:09.532Z,45.72
2017-04-28T07:42:50.408Z,45.14
2017-04-28T07:43:31.196Z,45.72
2017-04-28T07:44:13.534Z,45.24
2017-04-28T07:44:54.320Z,44.66
2017-04-28T07:45:35.011Z,44.56
2017-04-28T07:46:15.778Z,44.56
2017-04-28T07:46:56.603Z,44.46
2017-04-28T07:47:37.247Z,44.66
2017-04-28T07:48:17.967Z,44.56
2017-04-28T07:48:58.723Z,44.56
2017-04-28T07:49:39.523Z,44.37
2017-04-28T07:50:20.243Z,44.46
2017-04-28T07:51:01.015Z,45.62
2017-04-28T07:51:41.838Z,45.24
2017-04-28T07:52:22.578Z,45.04
2017-04-28T07:53:03.375Z,45.45
2017-04-28T07:53:44.176Z,45.07
2017-04-28T07:54:24.973Z,45.07
2017-04-28T07:55:05.791Z,45.17
2017-04-28T07:55:46.566Z,44.87
2017-04-28T07:56:27.364Z,45.36
2017-04-28T07:57:08.105Z,45.17
2017-04-28T07:57:48.972Z,45.26
2017-04-28T07:58:29.836Z,45.07
2017-04-28T07:59:10.653Z,45.26
2017-04-28T07:59:51.358Z,45.17
2017-04-28T08:00:32.104Z,44.87
2017-04-28T08:01:12.841Z,45.07
2017-04-28T08:01:53.628Z,44.87
2017-04-28T08:02:34.371Z,45.07
2017-04-28T08:03:15.146Z,45.17
2017-04-28T08:03:55.872Z,45.17
2017-04-28T08:04:36.733Z,45.07
2017-04-28T08:05:17.493Z,44.97
2017-04-28T08:05:58.319Z,45.17
2017-04-28T08:06:39.097Z,44.97
2017-04-28T08:07:19.934Z,45.07
2017-04-28T08:08:00.659Z,45.17
2017-04-28T08:08:41.417Z,45.07
2017-04-28T08:09:22.138Z,45.26
2017-04-28T08:10:02.872Z,45
2017-04-28T08:10:43.656Z,44.97
2017-04-28T08:11:24.465Z,45.26
2017-04-28T08:12:05.185Z,45
2017-04-28T08:12:45.907Z,45.09
2017-04-28T08:13:26.642Z,45
2017-04-28T08:14:07.450Z,45.18
2017-04-28T08:14:48.272Z,45.18
2017-04-28T08:16:38.456Z,45.18
2017-04-28T08:17:19.156Z,45.09
2017-04-28T08:17:59.895Z,45.48
2017-04-28T08:18:41.201Z,44.51
2017-04-28T08:19:21.910Z,44.42
2017-04-28T08:20:02.754Z,44.7
2017-04-28T08:20:43.496Z,44.9
2017-04-28T08:21:24.282Z,45.18
2017-04-28T08:22:05.043Z,45.18
2017-04-28T08:22:45.778Z,44.9
2017-04-28T08:23:26.538Z,44.9
2017-04-28T08:24:07.285Z,45.28
2017-04-28T08:24:48.115Z,45
2017-04-28T08:25:28.863Z,45.28
2017-04-28T08:26:09.608Z,45.28
2017-04-28T08:26:50.365Z,45.28
2017-04-28T08:27:31.190Z,46.23
2017-04-28T08:28:12.052Z,46.13
2017-04-28T08:28:52.737Z,46.03
2017-04-28T08:29:33.495Z,46.34
2017-04-28T08:30:14.242Z,46.25
2017-04-28T08:30:54.956Z,46.54
2017-04-28T08:31:35.633Z,45.86
2017-04-28T08:32:16.372Z,45.76
2017-04-28T08:32:57.148Z,45.28
2017-04-28T08:33:44.449Z,45.57
2017-04-28T08:34:25.271Z,45.38
2017-04-28T08:35:06.071Z,45.48
2017-04-28T08:35:46.854Z,45.48
2017-04-28T08:36:27.626Z,45.48
2017-04-28T08:37:08.361Z,45.28
2017-04-28T08:37:49.127Z,45.48
2017-04-28T08:38:29.914Z,45.67
2017-04-28T08:39:10.699Z,45.76
2017-04-28T08:39:51.522Z,45.76
2017-04-28T08:40:32.357Z,45.76
2017-04-28T08:41:13.160Z,46.25
2017-04-28T08:41:53.897Z,46.15
2017-04-28T08:42:34.652Z,46.54
2017-04-28T08:43:15.418Z,46.34
2017-04-28T08:43:56.160Z,46.44
2017-04-28T08:44:36.962Z,46.06
2017-04-28T08:45:17.720Z,46.06
2017-04-28T08:46:05.138Z,46.54
2017-04-28T08:46:45.860Z,46.64
2017-04-28T08:47:26.655Z,46.92
2017-04-28T08:48:07.432Z,46.73
2017-04-28T08:48:48.252Z,46.9
2017-04-28T08:49:29.100Z,47
2017-04-28T08:50:09.941Z,47.58
2017-04-28T08:50:50.728Z,47.5
2017-04-28T08:51:31.517Z,47.31
2017-04-28T08:52:12.363Z,47.77
2017-04-28T08:52:53.086Z,47.77
2017-04-28T08:53:33.905Z,47.87
2017-04-28T08:54:14.625Z,47.77